Time;durP1;ratioP1;P1;durP2;ratioP2;P2;SDS_P1;SDS_P2;PMS_P1;PMS_P2;Temp;Humidity;BMP_temperature;BMP_pressure;BME280_temperature;BME280_humidity;BME280_pressure;Samples;Min_cycle;Max_cycle;Signal;HPM_P1;HPM_P2
2022/04/15 00:01:37;;;;;;;47.60;34.90;;;12.00;99.90;;;;;;5073748;28;20191;-62
2022/04/15 00:04:03;;;;;;;52.50;35.57;;;12.00;99.90;;;;;;5073503;28;20204;-64
2022/04/15 00:06:30;;;;;;;51.03;35.37;;;12.00;99.90;;;;;;5073495;28;20685;-63
2022/04/15 00:08:56;;;;;;;51.53;37.10;;;12.00;99.90;;;;;;5073582;28;20168;-63
2022/04/15 00:11:21;;;;;;;54.97;38.10;;;12.10;99.90;;;;;;5073211;28;20181;-63
2022/04/15 00:13:48;;;;;;;51.53;36.87;;;12.20;99.00;;;;;;5072871;28;20259;-63
2022/04/15 00:16:14;;;;;;;50.77;37.37;;;12.20;97.50;;;;;;5073497;28;20241;-63
2022/04/15 00:18:41;;;;;;;54.70;39.07;;;12.20;97.90;;;;;;5073316;28;20173;-63
2022/04/15 00:21:07;;;;;;;54.50;39.40;;;12.30;97.00;;;;;;5073290;28;20200;-63
2022/04/15 00:23:33;;;;;;;55.63;39.03;;;12.20;94.80;;;;;;5073266;28;20681;-62
2022/04/15 00:25:59;;;;;;;54.03;40.23;;;12.20;98.00;;;;;;5073536;28;20179;-62
2022/04/15 00:28:25;;;;;;;51.73;39.40;;;12.10;99.90;;;;;;5072874;28;20176;-62
2022/04/15 00:30:50;;;;;;;50.13;38.87;;;12.10;99.90;;;;;;5073194;28;20658;-62
2022/04/15 00:33:16;;;;;;;51.90;38.63;;;12.10;99.90;;;;;;5073108;28;20199;-62
2022/04/15 00:35:42;;;;;;;53.07;39.20;;;12.10;99.90;;;;;;5073257;28;20525;-63
2022/04/15 00:38:08;;;;;;;54.23;39.20;;;12.10;99.90;;;;;;5073089;28;20183;-63
2022/04/15 00:40:34;;;;;;;51.20;38.97;;;12.00;99.90;;;;;;5072827;28;20215;-62
2022/04/15 00:42:59;;;;;;;51.20;39.50;;;11.90;99.90;;;;;;5072706;28;20176;-63
2022/04/15 00:45:25;;;;;;;53.00;39.80;;;11.90;99.90;;;;;;5072763;28;20168;-62
2022/04/15 00:47:53;;;;;;;56.33;39.80;;;11.90;99.90;;;;;;5072916;28;20256;-63
2022/04/15 00:50:25;;;;;;;51.70;39.30;;;11.80;99.90;;;;;;5073039;28;20176;-61
2022/04/15 00:52:53;;;;;;;56.70;38.83;;;11.80;99.90;;;;;;5072814;28;20173;-61
2022/04/15 00:55:21;;;;;;;51.23;39.07;;;11.80;99.90;;;;;;5072132;28;20175;-63
2022/04/15 00:57:50;;;;;;;57.57;38.17;;;11.80;99.90;;;;;;5072937;28;20169;-63
2022/04/15 01:00:17;;;;;;;51.00;37.50;;;11.70;99.90;;;;;;5072903;28;20216;-62
2022/04/15 01:02:44;;;;;;;55.00;38.33;;;11.70;99.90;;;;;;5072866;28;20286;-62
2022/04/15 01:05:11;;;;;;;53.23;39.30;;;11.70;99.90;;;;;;5072899;28;20172;-62
2022/04/15 01:07:49;;;;;;;54.67;38.20;;;11.70;99.90;;;;;;5072638;28;20520;-62
2022/04/15 01:10:17;;;;;;;52.10;37.13;;;11.70;99.90;;;;;;5072200;28;20211;-62
2022/04/15 01:12:57;;;;;;;55.03;37.67;;;11.60;99.90;;;;;;5072404;28;20247;-62
2022/04/15 01:15:25;;;;;;;54.20;39.17;;;11.60;99.90;;;;;;5072741;28;20176;-62
2022/04/15 01:17:51;;;;;;;53.77;39.50;;;11.60;99.90;;;;;;5072672;28;20177;-62
2022/04/15 01:20:17;;;;;;;55.77;40.00;;;11.50;99.90;;;;;;5072454;28;20258;-62
2022/04/15 01:22:47;;;;;;;57.10;41.17;;;11.60;99.90;;;;;;5072361;28;20179;-62
2022/04/15 01:25:14;;;;;;;55.90;39.47;;;11.60;99.90;;;;;;5072140;28;20179;-62
2022/04/15 01:27:45;;;;;;;54.50;38.10;;;11.50;99.90;;;;;;5072710;28;20277;-62
2022/04/15 01:30:14;;;;;;;49.63;36.20;;;11.50;99.90;;;;;;5072484;28;20179;-62
2022/04/15 01:32:40;;;;;;;51.90;38.60;;;11.50;99.90;;;;;;5072556;28;20183;-62
2022/04/15 01:35:07;;;;;;;61.30;37.67;;;11.40;99.90;;;;;;5072850;28;20177;-62
2022/04/15 01:37:34;;;;;;;54.03;38.40;;;11.50;99.90;;;;;;5072358;28;20177;-62
2022/04/15 01:40:00;;;;;;;53.77;37.73;;;11.50;99.90;;;;;;5072067;28;20216;-62
2022/04/15 01:42:26;;;;;;;55.50;38.53;;;11.40;99.90;;;;;;5072570;28;20184;-62
2022/04/15 01:44:51;;;;;;;52.77;38.03;;;11.40;99.90;;;;;;5072329;28;20179;-62
2022/04/15 01:47:17;;;;;;;56.47;39.07;;;11.40;99.90;;;;;;5075171;28;20176;-63
2022/04/15 01:49:43;;;;;;;56.00;39.20;;;11.40;99.90;;;;;;5076054;28;20505;-62
2022/04/15 01:52:09;;;;;;;56.87;38.23;;;11.30;99.90;;;;;;5075814;28;20225;-63
2022/04/15 01:54:35;;;;;;;57.40;38.43;;;11.30;99.90;;;;;;5075379;28;20271;-63
2022/04/15 01:57:02;;;;;;;60.57;40.10;;;11.30;99.90;;;;;;5075713;28;20304;-62
2022/04/15 01:59:27;;;;;;;63.33;39.70;;;11.20;99.90;;;;;;5076029;28;20257;-62
2022/04/15 02:01:54;;;;;;;59.07;41.40;;;11.20;99.90;;;;;;5075821;28;20582;-62
2022/04/15 02:04:27;;;;;;;64.70;42.33;;;11.10;99.90;;;;;;5075708;28;20200;-62
2022/04/15 02:06:53;;;;;;;61.93;41.33;;;11.10;99.90;;;;;;5075473;28;20169;-62
2022/04/15 02:09:19;;;;;;;60.17;42.00;;;11.10;99.90;;;;;;5075124;28;20531;-62
2022/04/15 02:11:45;;;;;;;69.63;43.67;;;11.10;99.90;;;;;;5075826;28;20169;-61
2022/04/15 02:14:12;;;;;;;65.97;44.37;;;11.10;99.90;;;;;;5075585;28;20180;-61
2022/04/15 02:16:39;;;;;;;66.73;44.23;;;11.20;99.90;;;;;;5075616;28;20238;-62
2022/04/15 02:19:04;;;;;;;69.00;44.03;;;11.20;99.90;;;;;;5075677;28;20169;-63
2022/04/15 02:21:30;;;;;;;67.53;43.67;;;11.10;99.90;;;;;;5075245;28;20177;-61
2022/04/15 02:23:56;;;;;;;68.10;42.67;;;11.10;99.90;;;;;;5074943;28;20180;-62
2022/04/15 02:26:22;;;;;;;70.43;45.47;;;11.10;99.90;;;;;;5075655;28;20187;-62
2022/04/15 02:28:47;;;;;;;66.07;43.37;;;11.10;99.90;;;;;;5075502;28;20632;-63
2022/04/15 02:31:13;;;;;;;59.97;42.97;;;11.00;99.90;;;;;;5075416;28;20204;-63
2022/04/15 02:33:39;;;;;;;69.87;44.97;;;11.00;99.90;;;;;;5075086;28;20517;-63
2022/04/15 02:36:04;;;;;;;65.00;43.70;;;11.00;99.90;;;;;;5074691;28;20259;-62
2022/04/15 02:38:30;;;;;;;67.27;43.33;;;11.00;99.90;;;;;;5074634;28;20176;-62
2022/04/15 02:40:56;;;;;;;64.07;42.73;;;11.00;99.90;;;;;;5074867;28;20225;-62
2022/04/15 02:43:25;;;;;;;65.87;44.07;;;10.90;99.90;;;;;;5075035;28;20561;-60
2022/04/15 02:45:50;;;;;;;67.13;43.50;;;11.00;99.90;;;;;;5075014;28;20181;-63
2022/04/15 02:48:16;;;;;;;67.37;45.47;;;10.90;99.90;;;;;;5075121;28;20183;-62
2022/04/15 02:50:42;;;;;;;65.83;45.33;;;10.90;99.90;;;;;;5074773;28;20264;-62
2022/04/15 02:53:07;;;;;;;67.40;45.70;;;10.80;99.90;;;;;;5074412;28;20176;-62
2022/04/15 02:55:33;;;;;;;66.30;44.37;;;10.80;99.90;;;;;;5074366;28;20176;-61
2022/04/15 02:57:59;;;;;;;67.77;44.53;;;10.80;99.90;;;;;;5073765;28;20682;-62
2022/04/15 03:00:24;;;;;;;65.47;44.83;;;10.80;99.90;;;;;;5074725;28;20210;-62
2022/04/15 03:02:50;;;;;;;69.43;44.40;;;10.70;99.90;;;;;;5074787;28;20175;-62
2022/04/15 03:05:16;;;;;;;72.77;45.77;;;10.70;99.90;;;;;;5074410;28;20219;-62
2022/04/15 03:07:41;;;;;;;71.10;46.20;;;10.70;99.90;;;;;;5074234;28;20168;-62
2022/04/15 03:10:08;;;;;;;73.07;48.73;;;10.70;99.90;;;;;;5074387;28;20168;-62
2022/04/15 03:12:38;;;;;;;70.10;45.73;;;10.60;99.90;;;;;;5074599;28;20246;-62
2022/04/15 03:15:05;;;;;;;72.33;47.53;;;10.70;99.90;;;;;;5074314;28;20164;-63
2022/04/15 03:17:35;;;;;;;70.03;48.00;;;10.70;99.90;;;;;;5074566;28;20184;-62
2022/04/15 03:20:03;;;;;;;73.60;50.50;;;10.60;99.90;;;;;;5074184;28;20687;-63
2022/04/15 03:22:30;;;;;;;75.37;48.10;;;10.60;99.90;;;;;;5073549;28;20169;-62
2022/04/15 03:24:55;;;;;;;73.80;48.20;;;10.60;99.90;;;;;;5074010;28;20180;-61
2022/04/15 03:27:21;;;;;;;73.53;49.37;;;10.60;99.90;;;;;;5074051;28;20171;-63
2022/04/15 03:29:47;;;;;;;73.23;50.87;;;10.50;99.90;;;;;;5074047;28;20176;-61
2022/04/15 03:32:12;;;;;;;75.40;48.53;;;10.60;99.90;;;;;;5073839;28;20172;-62
2022/04/15 03:34:38;;;;;;;70.70;47.03;;;10.50;99.90;;;;;;5073129;28;20530;-61
2022/04/15 03:37:04;;;;;;;71.07;47.90;;;10.40;99.90;;;;;;5073701;28;20173;-61
2022/04/15 03:39:30;;;;;;;71.60;47.90;;;10.40;99.90;;;;;;5073580;28;20687;-63
2022/04/15 03:41:55;;;;;;;74.30;48.90;;;10.40;99.90;;;;;;5073774;28;20192;-62
2022/04/15 03:44:21;;;;;;;79.93;48.00;;;10.40;99.90;;;;;;5073818;28;20566;-61
2022/04/15 03:46:47;;;;;;;70.20;48.40;;;10.40;99.90;;;;;;5073063;28;20590;-63
2022/04/15 03:49:12;;;;;;;70.00;48.30;;;10.40;99.90;;;;;;5073461;28;20524;-62
2022/04/15 03:51:38;;;;;;;86.57;51.90;;;10.30;99.90;;;;;;5073390;28;20165;-62
2022/04/15 03:54:04;;;;;;;88.57;57.30;;;10.30;99.90;;;;;;5073273;28;20627;-61
2022/04/15 03:56:30;;;;;;;76.17;49.83;;;10.30;99.90;;;;;;5073032;28;20219;-62
2022/04/15 03:58:56;;;;;;;75.57;49.50;;;10.30;99.90;;;;;;5073217;28;20183;-62
2022/04/15 04:01:23;;;;;;;80.10;49.73;;;10.20;99.90;;;;;;5073257;28;20184;-62
2022/04/15 04:03:49;;;;;;;77.37;49.87;;;10.20;99.90;;;;;;5073166;28;20184;-61
2022/04/15 04:06:14;;;;;;;75.23;50.03;;;10.10;99.90;;;;;;5073350;28;20179;-64
2022/04/15 04:08:41;;;;;;;83.53;50.87;;;10.10;99.90;;;;;;5072806;28;20208;-62
2022/04/15 04:11:07;;;;;;;75.57;51.13;;;10.10;99.90;;;;;;5073105;28;20172;-63
2022/04/15 04:13:33;;;;;;;80.60;50.53;;;10.00;99.90;;;;;;5073032;28;20179;-62
2022/04/15 04:15:58;;;;;;;77.30;49.97;;;10.00;99.90;;;;;;5073034;28;20540;-62
2022/04/15 04:18:24;;;;;;;80.10;51.00;;;10.00;99.90;;;;;;5072927;28;20200;-62
2022/04/15 04:20:50;;;;;;;82.53;52.83;;;10.00;99.90;;;;;;5072984;28;20212;-62
2022/04/15 04:23:16;;;;;;;79.67;52.30;;;10.00;99.90;;;;;;5072861;28;20657;-62
2022/04/15 04:25:41;;;;;;;85.97;53.93;;;10.00;99.90;;;;;;5072750;28;20271;-64
2022/04/15 04:28:07;;;;;;;91.23;55.60;;;10.00;99.90;;;;;;5073060;28;20168;-62
2022/04/15 04:30:33;;;;;;;90.23;55.07;;;10.00;99.90;;;;;;5072674;28;20177;-62
2022/04/15 04:32:59;;;;;;;80.77;52.77;;;10.00;99.90;;;;;;5071912;28;20258;-63
2022/04/15 04:35:25;;;;;;;81.30;54.57;;;9.90;99.90;;;;;;5072421;28;20180;-62
2022/04/15 04:37:50;;;;;;;86.43;54.73;;;9.90;99.90;;;;;;5072742;28;20199;-62
2022/04/15 04:40:17;;;;;;;90.70;55.30;;;9.90;99.90;;;;;;5072404;28;20800;-63
2022/04/15 04:42:45;;;;;;;89.60;56.77;;;10.00;99.90;;;;;;5072633;28;20179;-63
2022/04/15 04:45:11;;;;;;;95.27;57.20;;;10.00;99.90;;;;;;5071971;28;20172;-62
2022/04/15 04:47:39;;;;;;;89.40;56.63;;;10.00;99.90;;;;;;5072557;28;20207;-63
2022/04/15 04:50:08;;;;;;;89.37;57.50;;;10.00;99.90;;;;;;5072735;28;20195;-63
2022/04/15 04:52:33;;;;;;;101.90;55.90;;;10.00;99.90;;;;;;5072804;28;20220;-62
2022/04/15 04:54:59;;;;;;;91.80;54.77;;;9.90;99.90;;;;;;5072444;28;20176;-62
2022/04/15 04:57:25;;;;;;;98.70;58.30;;;10.00;99.90;;;;;;5072040;28;20278;-62
2022/04/15 04:59:50;;;;;;;98.03;58.73;;;10.10;99.90;;;;;;5072329;28;20215;-63
2022/04/15 05:02:16;;;;;;;96.90;56.60;;;10.10;99.90;;;;;;5072277;28;20591;-62
2022/04/15 05:04:41;;;;;;;93.23;56.17;;;10.10;99.90;;;;;;5072834;28;20685;-62
2022/04/15 05:07:07;;;;;;;93.83;57.23;;;10.20;99.90;;;;;;5072778;28;20179;-62
2022/04/15 05:09:33;;;;;;;88.70;55.20;;;10.40;99.90;;;;;;5072487;28;20168;-63
2022/04/15 05:11:59;;;;;;;89.70;55.03;;;10.30;99.90;;;;;;5072291;28;20168;-61
2022/04/15 05:14:24;;;;;;;88.93;54.33;;;10.40;99.90;;;;;;5071980;28;20185;-62
2022/04/15 05:16:50;;;;;;;85.33;54.77;;;10.60;99.90;;;;;;5072205;28;20176;-63
2022/04/15 05:19:15;;;;;;;78.43;52.63;;;10.80;99.90;;;;;;5072276;28;20208;-62
2022/04/15 05:21:41;;;;;;;81.90;52.77;;;10.80;99.90;;;;;;5074222;28;20191;-62
2022/04/15 05:24:08;;;;;;;75.27;49.43;;;11.10;99.90;;;;;;5076218;28;20184;-62
2022/04/15 05:26:34;;;;;;;64.77;46.40;;;11.60;99.90;;;;;;5076264;28;20181;-62
2022/04/15 05:29:01;;;;;;;64.33;45.43;;;12.00;99.90;;;;;;5075501;28;20187;-62
2022/04/15 05:31:26;;;;;;;67.93;44.73;;;12.50;99.90;;;;;;5075659;28;20184;-62
2022/04/15 05:33:52;;;;;;;63.87;44.20;;;12.70;99.90;;;;;;5075415;28;20173;-62
2022/04/15 05:36:17;;;;;;;61.37;42.70;;;12.80;81.50;;;;;;5076154;28;20181;-63
2022/04/15 05:38:43;;;;;;;68.53;43.30;;;13.10;64.80;;;;;;5076008;28;20623;-62
2022/04/15 05:41:08;;;;;;;61.53;41.57;;;13.30;40.10;;;;;;5075202;28;20243;-62
2022/04/15 05:43:34;;;;;;;55.20;39.63;;;13.60;27.80;;;;;;5075437;28;20179;-61
2022/04/15 05:46:00;;;;;;;56.90;38.97;;;14.20;1.10;;;;;;5075332;28;20177;-61
2022/04/15 05:48:25;;;;;;;53.63;39.43;;;14.60;1.00;;;;;;5075085;28;20651;-62
2022/04/15 05:50:51;;;;;;;59.20;38.00;;;15.30;1.00;;;;;;5075461;28;20176;-61
2022/04/15 05:53:17;;;;;;;55.37;38.10;;;15.60;1.00;;;;;;5074498;28;20169;-61
2022/04/15 05:55:43;;;;;;;49.33;37.10;;;15.60;1.00;;;;;;5074720;28;20216;-62
2022/04/15 05:58:10;;;;;;;52.53;38.47;;;15.30;1.00;;;;;;5074984;28;20658;-63
2022/04/15 06:00:36;;;;;;;52.17;37.23;;;15.10;1.00;;;;;;5073901;28;20206;-62
2022/04/15 06:03:02;;;;;;;50.50;37.47;;;15.00;1.00;;;;;;5074917;28;20172;-62
2022/04/15 06:05:28;;;;;;;51.80;36.27;;;15.90;1.00;;;;;;5075335;28;20242;-63
2022/04/15 06:07:53;;;;;;;48.93;36.30;;;16.70;99.90;;;;;;5075574;28;20177;-63
2022/04/15 06:10:19;;;;;;;49.77;37.03;;;17.40;1.00;;;;;;5074522;28;20189;-63
2022/04/15 06:12:57;;;;;;;50.10;35.47;;;18.20;99.90;;;;;;5074099;28;20267;-63
2022/04/15 06:15:24;;;;;;;45.80;36.55;;;18.70;99.90;;;;;;5074607;28;20209;-63
2022/04/15 06:17:50;;;;;;;41.95;35.13;;;19.10;1.00;;;;;;5074684;28;20165;-64
2022/04/15 06:20:17;;;;;;;45.28;35.08;;;19.40;99.90;;;;;;5074526;28;20239;-65
2022/04/15 06:22:43;;;;;;;45.10;34.72;;;19.60;1.00;;;;;;5075115;28;20175;-64
2022/04/15 06:25:10;;;;;;;42.65;34.90;;;21.00;99.90;;;;;;5074791;28;20215;-65
2022/04/15 06:27:36;;;;;;;42.38;35.30;;;21.40;1.00;;;;;;5074258;28;20168;-63
2022/04/15 06:30:01;;;;;;;42.03;32.05;;;21.90;1.00;;;;;;5074334;28;20666;-64
2022/04/15 06:32:27;;;;;;;40.47;33.92;;;22.20;1.00;;;;;;5074923;28;20260;-65
2022/04/15 06:34:52;;;;;;;40.58;33.30;;;22.70;99.90;;;;;;5074355;28;20701;-65
2022/04/15 06:37:18;;;;;;;39.72;33.95;;;22.90;99.90;;;;;;5074307;28;20168;-63
2022/04/15 06:39:50;;;;;;;39.17;33.58;;;23.30;99.90;;;;;;5074709;28;20284;-64
2022/04/15 06:42:19;;;;;;;42.30;32.88;;;23.50;99.90;;;;;;5073958;28;20603;-63
2022/04/15 06:44:45;;;;;;;44.60;34.60;;;23.40;99.90;;;;;;5073841;28;20173;-63
2022/04/15 06:47:11;;;;;;;40.40;33.85;;;23.70;99.90;;;;;;5074843;28;20264;-64
2022/04/15 06:49:36;;;;;;;39.50;33.95;;;23.70;99.90;;;;;;5074030;28;20624;-64
2022/04/15 06:52:02;;;;;;;36.05;31.40;;;24.10;99.90;;;;;;5074529;28;20196;-64
2022/04/15 06:54:27;;;;;;;36.78;32.75;;;24.20;99.90;;;;;;5073429;28;20176;-64
2022/04/15 06:56:53;;;;;;;36.28;32.28;;;24.20;99.90;;;;;;5073700;28;20289;-64
2022/04/15 06:59:19;;;;;;;40.80;32.83;;;23.80;99.90;;;;;;5073096;28;20175;-64
2022/04/15 07:01:46;;;;;;;37.17;32.92;;;24.20;99.90;;;;;;5073682;28;20191;-64
2022/04/15 07:04:12;;;;;;;37.88;32.47;;;23.80;99.90;;;;;;5074076;28;20177;-64
2022/04/15 07:06:37;;;;;;;40.83;31.55;;;24.40;99.90;;;;;;5073937;28;20650;-64
2022/04/15 07:09:03;;;;;;;35.92;30.67;;;24.50;99.90;;;;;;5073386;28;20251;-64
2022/04/15 07:11:29;;;;;;;33.47;29.85;;;24.10;99.90;;;;;;5073973;28;20195;-64
2022/04/15 07:13:54;;;;;;;33.05;28.58;;;24.40;99.90;;;;;;5073668;28;20574;-64
2022/04/15 07:16:20;;;;;;;33.42;29.83;;;23.70;99.90;;;;;;5073595;28;20169;-64
2022/04/15 07:18:46;;;;;;;32.85;28.63;;;23.60;99.90;;;;;;5073859;28;20513;-64
2022/04/15 07:21:12;;;;;;;32.80;29.30;;;24.00;99.90;;;;;;5073715;28;20219;-65
2022/04/15 07:23:37;;;;;;;33.38;29.88;;;24.40;99.90;;;;;;5073774;28;20180;-65
2022/04/15 07:26:03;;;;;;;31.05;27.83;;;24.10;99.90;;;;;;5073590;28;20234;-65
2022/04/15 07:28:29;;;;;;;34.13;28.00;;;23.90;99.90;;;;;;5073019;28;20172;-65
2022/04/15 07:30:55;;;;;;;31.73;27.90;;;24.80;99.90;;;;;;5073551;28;20639;-65
2022/04/15 07:33:20;;;;;;;29.88;26.48;;;25.00;99.90;;;;;;5073399;28;20711;-65
2022/04/15 07:35:46;;;;;;;32.40;26.42;;;25.00;99.90;;;;;;5073923;28;20627;-65
2022/04/15 07:38:12;;;;;;;29.77;26.67;;;23.90;99.90;;;;;;5073242;28;20187;-65
2022/04/15 07:40:37;;;;;;;32.20;28.08;;;24.40;99.90;;;;;;5072192;28;20219;-64
2022/04/15 07:43:03;;;;;;;28.38;25.48;;;24.10;99.90;;;;;;5072750;28;20164;-66
2022/04/15 07:45:29;;;;;;;31.63;26.58;;;24.60;99.90;;;;;;5072998;28;20176;-65
2022/04/15 07:47:55;;;;;;;30.27;27.00;;;23.40;99.90;;;;;;5073051;28;20247;-65
2022/04/15 07:50:23;;;;;;;28.73;25.73;;;23.60;99.90;;;;;;5073445;28;20521;-65
2022/04/15 07:52:56;;;;;;;28.15;25.00;;;24.70;99.90;;;;;;5073163;28;20169;-65
2022/04/15 07:55:22;;;;;;;29.98;26.77;;;25.20;99.90;;;;;;5073135;28;20168;-65
2022/04/15 07:57:48;;;;;;;32.15;28.27;;;25.80;99.90;;;;;;5072659;28;20173;-65
2022/04/15 08:00:14;;;;;;;29.98;26.08;;;26.10;99.90;;;;;;5072608;28;20610;-66
2022/04/15 08:02:40;;;;;;;30.35;26.98;;;26.50;99.90;;;;;;5072505;28;20226;-64
2022/04/15 08:05:06;;;;;;;30.05;26.70;;;26.80;99.90;;;;;;5072949;28;20168;-66
2022/04/15 08:07:32;;;;;;;31.58;26.63;;;25.90;99.90;;;;;;5072682;28;20171;-66
2022/04/15 08:09:58;;;;;;;29.10;25.98;;;25.00;99.90;;;;;;5072225;28;20180;-65
2022/04/15 08:12:23;;;;;;;33.05;29.48;;;25.20;99.90;;;;;;5072514;28;20620;-65
2022/04/15 08:14:49;;;;;;;30.80;26.38;;;26.20;99.90;;;;;;5072206;28;20244;-66
2022/04/15 08:17:15;;;;;;;30.70;27.50;;;26.00;99.90;;;;;;5072277;28;20259;-65
2022/04/15 08:19:41;;;;;;;26.67;23.67;;;26.90;99.90;;;;;;5072732;28;20211;-65
2022/04/15 08:22:09;;;;;;;26.92;24.20;;;27.80;99.90;;;;;;5072858;28;20207;-65
2022/04/15 08:24:39;;;;;;;25.98;23.30;;;27.80;99.90;;;;;;5072496;28;20283;-65
2022/04/15 08:27:05;;;;;;;26.88;24.08;;;26.60;99.90;;;;;;5072217;28;20248;-66
2022/04/15 08:29:30;;;;;;;26.33;23.50;;;26.80;99.90;;;;;;5072635;28;20196;-66
2022/04/15 08:31:56;;;;;;;25.05;21.90;;;27.60;99.90;;;;;;5072491;28;20168;-65
2022/04/15 08:34:21;;;;;;;25.83;21.98;;;27.60;99.90;;;;;;5072423;28;20173;-66
2022/04/15 08:36:47;;;;;;;21.73;19.52;;;28.40;99.90;;;;;;5072801;28;20180;-65
2022/04/15 08:39:12;;;;;;;22.52;19.02;;;28.30;99.90;;;;;;5072104;28;20188;-64
2022/04/15 08:41:42;;;;;;;19.70;17.55;;;26.80;99.90;;;;;;5072684;28;20213;-65
2022/04/15 08:44:08;;;;;;;13.18;11.77;;;27.00;99.90;;;;;;5072332;28;20635;-65
2022/04/15 08:46:35;;;;;;;20.17;18.00;;;26.50;99.90;;;;;;5072200;28;20632;-66
2022/04/15 08:49:02;;;;;;;18.60;16.73;;;26.30;99.90;;;;;;5071971;28;20165;-66
2022/04/15 08:51:29;;;;;;;14.88;13.32;;;26.70;99.90;;;;;;5070837;28;20221;-65
2022/04/15 08:53:56;;;;;;;14.98;12.70;;;27.20;99.90;;;;;;5071627;28;20188;-65
2022/04/15 08:56:22;;;;;;;13.15;11.88;;;25.90;99.90;;;;;;5073712;28;20220;-64
2022/04/15 08:58:48;;;;;;;15.10;13.55;;;25.70;99.90;;;;;;5076096;28;20697;-67
2022/04/15 09:01:14;;;;;;;16.17;14.57;;;26.60;99.90;;;;;;5076281;28;20210;-64
2022/04/15 09:03:40;;;;;;;15.27;13.68;;;26.30;99.90;;;;;;5076172;28;20161;-66
2022/04/15 09:06:16;;;;;;;21.63;16.42;;;26.20;99.90;;;;;;5076620;28;20184;-65
2022/04/15 09:08:58;;;;;;;18.10;16.10;;;27.50;99.90;;;;;;5075970;28;20188;-66
2022/04/15 09:11:30;;;;;;;18.30;15.50;;;28.30;99.90;;;;;;5076086;28;20168;-66
2022/04/15 09:13:56;;;;;;;16.45;14.80;;;27.20;99.90;;;;;;5076288;28;20259;-66
2022/04/15 09:16:23;;;;;;;16.45;14.73;;;26.60;99.90;;;;;;5076235;28;20260;-65
2022/04/15 09:18:49;;;;;;;17.10;15.02;;;26.90;99.90;;;;;;5075850;28;20638;-64
2022/04/15 09:21:24;;;;;;;17.85;15.90;;;27.70;99.90;;;;;;5075719;28;20216;-65
2022/04/15 09:23:52;;;;;;;13.43;11.48;;;26.30;99.90;;;;;;5075747;28;20569;-65
2022/04/15 09:26:19;;;;;;;12.00;9.77;;;26.20;99.90;;;;;;5075999;28;20191;-65
2022/04/15 09:28:45;;;;;;;13.55;12.05;;;26.00;99.90;;;;;;5076207;28;20172;-65
2022/04/15 09:31:16;;;;;;;13.10;11.80;;;25.90;99.90;;;;;;5075779;28;20210;-65
2022/04/15 09:33:54;;;;;;;9.52;7.88;;;25.90;99.90;;;;;;5075749;28;20195;-65
2022/04/15 09:36:27;;;;;;;9.50;8.60;;;25.60;99.90;;;;;;5075834;28;20226;-64
2022/04/15 09:39:10;;;;;;;9.82;8.82;;;24.60;99.90;;;;;;5075372;28;20184;-66
2022/04/15 09:41:37;;;;;;;8.55;7.75;;;24.70;99.90;;;;;;5075571;28;20448;-65
2022/04/15 09:44:03;;;;;;;9.55;8.57;;;25.40;99.90;;;;;;5075944;28;20187;-65
2022/04/15 09:46:30;;;;;;;9.25;8.30;;;25.40;99.90;;;;;;5075581;28;20704;-65
2022/04/15 09:49:16;;;;;;;10.65;8.73;;;24.60;99.90;;;;;;5075266;28;20267;-65
2022/04/15 09:51:47;;;;;;;8.07;7.28;;;25.50;99.90;;;;;;5074956;28;20232;-64
2022/04/15 09:54:27;;;;;;;8.38;5.95;;;25.90;99.90;;;;;;5075115;28;20179;-64
2022/04/15 09:56:57;;;;;;;9.75;8.77;;;24.50;99.90;;;;;;5075200;28;20216;-65
2022/04/15 09:59:25;;;;;;;11.00;9.93;;;25.00;99.90;;;;;;5075442;28;20211;-65
2022/04/15 10:01:56;;;;;;;10.25;9.25;;;24.20;99.90;;;;;;5075092;28;20234;-65
2022/04/15 10:04:25;;;;;;;9.20;8.30;;;24.80;99.90;;;;;;5075208;28;20168;-64
2022/04/15 10:06:52;;;;;;;13.00;9.45;;;25.20;99.90;;;;;;5074765;28;20180;-64
2022/04/15 10:09:19;;;;;;;10.13;9.10;;;24.20;99.90;;;;;;5074941;28;20176;-64
2022/04/15 10:11:46;;;;;;;10.35;9.25;;;23.40;99.90;;;;;;5075259;28;20542;-65
2022/04/15 10:14:15;;;;;;;10.20;9.30;;;24.00;99.90;;;;;;5073648;28;20176;-65
2022/04/15 10:16:44;;;;;;;10.80;9.68;;;23.60;99.90;;;;;;5074915;28;20493;-65
2022/04/15 10:19:11;;;;;;;11.20;10.10;;;24.50;99.90;;;;;;5075093;28;20172;-64
2022/04/15 10:21:41;;;;;;;12.85;11.52;;;24.10;99.90;;;;;;5074307;28;20184;-65
2022/04/15 10:24:09;;;;;;;11.68;10.38;;;24.10;99.90;;;;;;5075364;28;20207;-64
2022/04/15 10:26:43;;;;;;;11.90;10.65;;;23.30;99.90;;;;;;5074592;28;20176;-64
2022/04/15 10:29:10;;;;;;;13.10;10.50;;;22.70;99.90;;;;;;5075187;28;20179;-63
2022/04/15 10:31:46;;;;;;;13.98;12.50;;;22.30;99.90;;;;;;5074864;28;20238;-63
2022/04/15 10:34:16;;;;;;;12.88;11.57;;;22.80;99.90;;;;;;5074876;28;20259;-64
2022/04/15 10:36:46;;;;;;;10.63;9.65;;;22.90;99.90;;;;;;5074195;28;20172;-65
2022/04/15 10:39:14;;;;;;;10.88;9.77;;;24.10;99.90;;;;;;5074682;28;20168;-65
2022/04/15 10:41:43;;;;;;;13.30;10.43;;;23.60;99.90;;;;;;5074584;28;20257;-65
2022/04/15 10:44:22;;;;;;;12.25;10.23;;;22.90;99.90;;;;;;5073869;28;20177;-64
2022/04/15 10:46:48;;;;;;;11.75;10.50;;;22.60;99.90;;;;;;5074727;28;20242;-64
2022/04/15 10:49:26;;;;;;;10.88;9.30;;;23.30;99.90;;;;;;5073923;28;20577;-64
2022/04/15 10:52:02;;;;;;;11.27;10.10;;;24.30;99.90;;;;;;5073969;28;20245;-64
2022/04/15 10:54:36;;;;;;;11.93;9.80;;;24.60;99.90;;;;;;5074579;28;20271;-64
2022/04/15 10:57:03;;;;;;;11.73;9.98;;;23.90;99.90;;;;;;5073971;28;20216;-65
2022/04/15 11:02:17;;;;;;;10.48;9.48;;;24.00;99.90;;;;;;5074110;28;20318;-65
2022/04/15 11:04:49;;;;;;;9.57;8.07;;;22.60;99.90;;;;;;5073752;28;20247;-65
2022/04/15 11:07:24;;;;;;;11.77;10.27;;;22.10;99.90;;;;;;5073694;28;20172;-63
2022/04/15 11:09:50;;;;;;;12.55;11.35;;;22.30;99.90;;;;;;5073976;28;20172;-64
2022/04/15 11:12:33;;;;;;;13.77;12.38;;;22.00;99.90;;;;;;5073928;28;20545;-64
2022/04/15 11:14:59;;;;;;;14.57;13.07;;;21.90;99.90;;;;;;5074030;28;20171;-63
2022/04/15 11:17:45;;;;;;;14.80;12.68;;;21.20;99.90;;;;;;5074113;28;20169;-62
2022/04/15 11:20:12;;;;;;;13.90;12.20;;;21.80;99.90;;;;;;5072373;28;20739;-63
2022/04/15 11:22:42;;;;;;;13.00;11.68;;;22.30;99.90;;;;;;5073530;28;20188;-64
2022/04/15 11:25:09;;;;;;;15.50;13.88;;;22.90;99.90;;;;;;5073740;28;20283;-63
2022/04/15 11:27:40;;;;;;;18.02;14.48;;;22.70;99.90;;;;;;5073509;28;20570;-63
2022/04/15 11:30:15;;;;;;;14.48;13.18;;;23.10;99.90;;;;;;5073494;28;20233;-63
2022/04/15 11:32:51;;;;;;;12.85;11.55;;;24.30;99.90;;;;;;5073199;28;20251;-63
2022/04/15 11:35:28;;;;;;;12.68;11.48;;;24.30;99.90;;;;;;5073109;28;20639;-63
2022/04/15 11:38:01;;;;;;;12.23;11.02;;;22.60;99.90;;;;;;5073424;28;20186;-63
2022/04/15 11:40:34;;;;;;;11.48;9.50;;;22.30;99.90;;;;;;5073231;28;20212;-63
2022/04/15 11:43:01;;;;;;;11.63;10.40;;;21.30;99.90;;;;;;5073117;28;20259;-63
2022/04/15 11:45:41;;;;;;;11.93;10.15;;;21.70;99.90;;;;;;5073539;28;20211;-64
2022/04/15 11:48:23;;;;;;;10.40;9.10;;;22.00;99.90;;;;;;5072789;28;20177;-63
2022/04/15 11:50:53;;;;;;;11.75;9.80;;;21.20;99.90;;;;;;5073441;28;20191;-63
2022/04/15 11:53:20;;;;;;;9.90;8.95;;;21.90;99.90;;;;;;5072802;28;20173;-63
2022/04/15 11:55:53;;;;;;;10.30;9.18;;;22.30;99.90;;;;;;5072811;28;20209;-65
2022/04/15 11:58:20;;;;;;;10.85;9.75;;;23.00;99.90;;;;;;5072790;28;20172;-62
2022/04/15 12:00:50;;;;;;;10.48;9.43;;;22.60;99.90;;;;;;5073153;28;20265;-63
2022/04/15 12:03:16;;;;;;;11.65;10.05;;;21.90;99.90;;;;;;5072885;28;20215;-63
2022/04/15 12:05:42;;;;;;;11.43;10.23;;;20.90;99.90;;;;;;5072800;28;20635;-64
2022/04/15 12:08:10;;;;;;;9.13;8.27;;;20.80;1.00;;;;;;5072391;28;20204;-63
2022/04/15 12:10:40;;;;;;;7.80;7.10;;;21.20;99.90;;;;;;5072838;28;20592;-63
2022/04/15 12:13:09;;;;;;;8.75;7.88;;;20.80;99.90;;;;;;5071769;28;20478;-63
2022/04/15 12:15:35;;;;;;;10.23;9.15;;;19.80;1.00;;;;;;5072671;28;20183;-62
2022/04/15 12:18:05;;;;;;;9.48;7.28;;;19.00;99.90;;;;;;5071927;28;20753;-61
2022/04/15 12:20:33;;;;;;;8.57;7.63;;;18.90;99.90;;;;;;5072382;28;20212;-63
2022/04/15 12:22:59;;;;;;;8.70;7.88;;;19.10;11.90;;;;;;5072965;28;20177;-62
2022/04/15 12:25:26;;;;;;;8.18;6.75;;;19.20;1.00;;;;;;5072195;28;20651;-63
2022/04/15 12:27:53;;;;;;;7.55;6.45;;;19.00;3.30;;;;;;5072630;28;20172;-63
2022/04/15 12:30:52;;;;;;;9.00;8.10;;;19.20;42.60;;;;;;5072565;28;20268;-63
2022/04/15 12:33:23;;;;;;;8.52;7.72;;;19.00;99.90;;;;;;5029251;28;20289;-63
2022/04/15 12:36:01;;;;;;;8.70;7.78;;;19.20;99.90;;;;;;5030813;28;20554;-62